sensor_id;sensor_type;location;lat;lon;timestamp;pressure;altitude;pressure_sealevel;temperature;humidity
58955;BME280;45815;52.334;5.024;2022-07-06T00:01:32;102582.59;;;15.85;100.00
58955;BME280;45815;52.334;5.024;2022-07-06T00:03:57;102580.72;;;15.81;100.00
58955;BME280;45815;52.334;5.024;2022-07-06T00:06:23;102581.44;;;15.75;100.00
58955;BME280;45815;52.334;5.024;2022-07-06T00:08:49;102569.69;;;15.66;100.00
58955;BME280;45815;52.334;5.024;2022-07-06T00:11:15;102582.03;;;15.65;100.00
58955;BME280;45815;52.334;5.024;2022-07-06T00:13:40;102575.72;;;15.60;100.00
58955;BME280;45815;52.334;5.024;2022-07-06T00:16:06;102571.97;;;15.52;100.00
58955;BME280;45815;52.334;5.024;2022-07-06T00:18:31;102585.19;;;15.50;100.00
58955;BME280;45815;52.334;5.024;2022-07-06T00:20:57;102582.41;;;15.46;100.00
58955;BME280;45815;52.334;5.024;2022-07-06T00:23:22;102593.75;;;15.41;100.00
58955;BME280;45815;52.334;5.024;2022-07-06T00:25:47;102587.47;;;15.36;100.00
58955;BME280;45815;52.334;5.024;2022-07-06T00:28:13;102589.16;;;15.34;100.00
58955;BME280;45815;52.334;5.024;2022-07-06T00:30:39;102575.69;;;15.25;100.00
58955;BME280;45815;52.334;5.024;2022-07-06T00:33:04;102588.97;;;15.28;100.00
58955;BME280;45815;52.334;5.024;2022-07-06T00:35:30;102563.91;;;15.14;100.00
58955;BME280;45815;52.334;5.024;2022-07-06T00:37:55;102587.84;;;15.18;100.00
58955;BME280;45815;52.334;5.024;2022-07-06T00:40:20;102585.06;;;15.14;100.00
58955;BME280;45815;52.334;5.024;2022-07-06T00:42:47;102592.88;;;15.09;100.00
58955;BME280;45815;52.334;5.024;2022-07-06T00:45:14;102587.56;;;15.09;100.00
58955;BME280;45815;52.334;5.024;2022-07-06T00:47:41;102588.31;;;15.04;100.00
58955;BME280;45815;52.334;5.024;2022-07-06T00:50:09;102588.19;;;15.01;100.00
58955;BME280;45815;52.334;5.024;2022-07-06T00:53:05;102589.00;;;14.98;100.00
58955;BME280;45815;52.334;5.024;2022-07-06T00:55:32;102599.50;;;14.95;100.00
58955;BME280;45815;52.334;5.024;2022-07-06T00:57:58;102583.44;;;14.89;100.00
58955;BME280;45815;52.334;5.024;2022-07-06T01:00:27;102582.69;;;14.91;100.00
58955;BME280;45815;52.334;5.024;2022-07-06T01:02:53;102582.69;;;14.91;100.00
58955;BME280;45815;52.334;5.024;2022-07-06T01:05:19;102572.75;;;14.84;100.00
58955;BME280;45815;52.334;5.024;2022-07-06T01:07:46;102581.63;;;14.86;100.00
58955;BME280;45815;52.334;5.024;2022-07-06T01:10:15;102581.63;;;14.86;100.00
58955;BME280;45815;52.334;5.024;2022-07-06T01:12:42;102580.66;;;14.84;100.00
58955;BME280;45815;52.334;5.024;2022-07-06T01:15:11;102589.47;;;14.83;100.00
58955;BME280;45815;52.334;5.024;2022-07-06T01:17:39;102586.81;;;14.83;100.00
58955;BME280;45815;52.334;5.024;2022-07-06T01:20:16;102585.06;;;14.84;100.00
58955;BME280;45815;52.334;5.024;2022-07-06T01:22:43;102580.50;;;14.78;100.00
58955;BME280;45815;52.334;5.024;2022-07-06T01:25:09;102590.47;;;14.87;100.00
58955;BME280;45815;52.334;5.024;2022-07-06T01:27:36;102587.00;;;14.89;100.00
58955;BME280;45815;52.334;5.024;2022-07-06T01:30:14;102589.75;;;14.92;100.00
58955;BME280;45815;52.334;5.024;2022-07-06T01:32:41;102583.63;;;14.95;100.00
58955;BME280;45815;52.334;5.024;2022-07-06T01:35:08;102581.06;;;14.96;100.00
58955;BME280;45815;52.334;5.024;2022-07-06T01:37:35;102575.72;;;14.95;100.00
58955;BME280;45815;52.334;5.024;2022-07-06T01:40:02;102564.31;;;14.97;100.00
58955;BME280;45815;52.334;5.024;2022-07-06T01:42:29;102572.31;;;15.01;100.00
58955;BME280;45815;52.334;5.024;2022-07-06T01:44:54;102575.91;;;15.03;100.00
58955;BME280;45815;52.334;5.024;2022-07-06T01:47:20;102577.81;;;15.07;100.00
58955;BME280;45815;52.334;5.024;2022-07-06T01:49:47;102575.25;;;15.10;100.00
58955;BME280;45815;52.334;5.024;2022-07-06T01:52:13;102576.28;;;15.15;100.00
58955;BME280;45815;52.334;5.024;2022-07-06T01:54:39;102574.56;;;15.17;100.00
58955;BME280;45815;52.334;5.024;2022-07-06T01:57:05;102566.66;;;15.18;100.00
58955;BME280;45815;52.334;5.024;2022-07-06T01:59:31;102567.47;;;15.16;100.00
58955;BME280;45815;52.334;5.024;2022-07-06T02:01:56;102568.44;;;15.18;100.00
58955;BME280;45815;52.334;5.024;2022-07-06T02:04:22;102573.78;;;15.21;100.00
58955;BME280;45815;52.334;5.024;2022-07-06T02:06:48;102568.59;;;15.24;100.00
58955;BME280;45815;52.334;5.024;2022-07-06T02:09:13;102567.69;;;15.24;100.00
58955;BME280;45815;52.334;5.024;2022-07-06T02:11:38;102562.44;;;15.25;100.00
58955;BME280;45815;52.334;5.024;2022-07-06T02:14:04;102563.41;;;15.29;100.00
58955;BME280;45815;52.334;5.024;2022-07-06T02:16:29;102568.81;;;15.32;100.00
58955;BME280;45815;52.334;5.024;2022-07-06T02:18:55;102564.47;;;15.35;100.00
58955;BME280;45815;52.334;5.024;2022-07-06T02:21:21;102566.28;;;15.36;100.00
58955;BME280;45815;52.334;5.024;2022-07-06T02:23:46;102565.41;;;15.36;100.00
58955;BME280;45815;52.334;5.024;2022-07-06T02:26:12;102568.06;;;15.37;100.00
58955;BME280;45815;52.334;5.024;2022-07-06T02:28:37;102567.22;;;15.38;100.00
58955;BME280;45815;52.334;5.024;2022-07-06T02:31:04;102566.38;;;15.39;100.00
58955;BME280;45815;52.334;5.024;2022-07-06T02:33:30;102564.59;;;15.40;100.00
58955;BME280;45815;52.334;5.024;2022-07-06T02:35:55;102569.88;;;15.38;100.00
58955;BME280;45815;52.334;5.024;2022-07-06T02:38:21;102562.78;;;15.37;100.00
58955;BME280;45815;52.334;5.024;2022-07-06T02:40:46;102560.06;;;15.34;100.00
58955;BME280;45815;52.334;5.024;2022-07-06T02:43:12;102572.41;;;15.34;100.00
58955;BME280;45815;52.334;5.024;2022-07-06T02:45:39;102572.28;;;15.29;100.00
58955;BME280;45815;52.334;5.024;2022-07-06T02:48:05;102578.31;;;15.25;100.00
58955;BME280;45815;52.334;5.024;2022-07-06T02:50:32;102575.50;;;15.19;100.00
58955;BME280;45815;52.334;5.024;2022-07-06T02:52:57;102575.38;;;15.14;100.00
58955;BME280;45815;52.334;5.024;2022-07-06T02:55:24;102591.16;;;15.11;100.00
58955;BME280;45815;52.334;5.024;2022-07-06T02:57:50;102577.84;;;15.08;100.00
58955;BME280;45815;52.334;5.024;2022-07-06T03:00:16;102587.50;;;15.06;100.00
58955;BME280;45815;52.334;5.024;2022-07-06T03:02:42;102586.56;;;15.04;100.00
58955;BME280;45815;52.334;5.024;2022-07-06T03:05:08;102583.00;;;15.04;100.00
58955;BME280;45815;52.334;5.024;2022-07-06T03:07:34;102587.41;;;15.03;100.00
58955;BME280;45815;52.334;5.024;2022-07-06T03:10:00;102582.97;;;15.02;100.00
58955;BME280;45815;52.334;5.024;2022-07-06T03:12:26;102586.50;;;15.03;100.00
58955;BME280;45815;52.334;5.024;2022-07-06T03:14:52;102577.66;;;15.02;100.00
58955;BME280;45815;52.334;5.024;2022-07-06T03:17:17;102583.00;;;15.04;100.00
58955;BME280;45815;52.334;5.024;2022-07-06T03:19:44;102583.91;;;15.04;100.00
58955;BME280;45815;52.334;5.024;2022-07-06T03:22:09;102574.31;;;15.08;100.00
58955;BME280;45815;52.334;5.024;2022-07-06T03:24:35;102580.59;;;15.11;100.00
58955;BME280;45815;52.334;5.024;2022-07-06T03:27:01;102575.38;;;15.14;100.00
58955;BME280;45815;52.334;5.024;2022-07-06T03:29:26;102583.44;;;15.19;100.00
58955;BME280;45815;52.334;5.024;2022-07-06T03:31:52;102588.00;;;15.25;100.00
58955;BME280;45815;52.334;5.024;2022-07-06T03:34:18;102587.22;;;15.29;100.00
58955;BME280;45815;52.334;5.024;2022-07-06T03:36:43;102576.69;;;15.30;100.00
58955;BME280;45815;52.334;5.024;2022-07-06T03:39:08;102580.22;;;15.29;100.00
58955;BME280;45815;52.334;5.024;2022-07-06T03:41:36;102578.31;;;15.25;100.00
58955;BME280;45815;52.334;5.024;2022-07-06T03:44:02;102574.78;;;15.25;100.00
58955;BME280;45815;52.334;5.024;2022-07-06T03:46:28;102573.03;;;15.25;100.00
58955;BME280;45815;52.334;5.024;2022-07-06T03:48:54;102573.16;;;15.30;100.00
58955;BME280;45815;52.334;5.024;2022-07-06T03:51:20;102570.63;;;15.34;100.00
58955;BME280;45815;52.334;5.024;2022-07-06T03:53:45;102568.06;;;15.37;100.00
58955;BME280;45815;52.334;5.024;2022-07-06T03:56:11;102561.94;;;15.38;100.00
58955;BME280;45815;52.334;5.024;2022-07-06T03:59:01;102572.53;;;15.40;100.00
58955;BME280;45815;52.334;5.024;2022-07-06T04:01:29;102572.59;;;15.41;100.00
58955;BME280;45815;52.334;5.024;2022-07-06T04:03:57;102568.16;;;15.40;100.00
58955;BME280;45815;52.334;5.024;2022-07-06T04:06:23;102575.31;;;15.45;100.00
58955;BME280;45815;52.334;5.024;2022-07-06T04:08:48;102578.06;;;15.48;100.00
58955;BME280;45815;52.334;5.024;2022-07-06T04:11:14;102567.53;;;15.51;100.00
58955;BME280;45815;52.334;5.024;2022-07-06T04:13:40;102575.56;;;15.54;100.00
58955;BME280;45815;52.334;5.024;2022-07-06T04:16:06;102570.38;;;15.57;100.00
58955;BME280;45815;52.334;5.024;2022-07-06T04:18:32;102565.16;;;15.61;100.00
58955;BME280;45815;52.334;5.024;2022-07-06T04:20:58;102562.63;;;15.65;100.00
58955;BME280;45815;52.334;5.024;2022-07-06T04:23:25;102575.97;;;15.69;100.00
58955;BME280;45815;52.334;5.024;2022-07-06T04:25:52;102583.19;;;15.73;100.00
58955;BME280;45815;52.334;5.024;2022-07-06T04:28:18;102576.16;;;15.75;100.00
58955;BME280;45815;52.334;5.024;2022-07-06T04:30:43;102588.47;;;15.73;100.00
58955;BME280;45815;52.334;5.024;2022-07-06T04:33:12;102583.25;;;15.78;100.00
58955;BME280;45815;52.334;5.024;2022-07-06T04:35:39;102579.19;;;15.91;100.00
58955;BME280;45815;52.334;5.024;2022-07-06T04:38:05;102583.06;;;16.05;100.00
58955;BME280;45815;52.334;5.024;2022-07-06T04:40:30;102580.72;;;16.17;100.00
58955;BME280;45815;52.334;5.024;2022-07-06T04:43:00;102584.50;;;16.29;100.00
58955;BME280;45815;52.334;5.024;2022-07-06T04:45:27;102570.53;;;16.34;100.00
58955;BME280;45815;52.334;5.024;2022-07-06T04:47:52;102579.47;;;16.41;100.00
58955;BME280;45815;52.334;5.024;2022-07-06T04:50:18;102569.91;;;16.46;100.00
58955;BME280;45815;52.334;5.024;2022-07-06T04:52:45;102583.28;;;16.52;100.00
58955;BME280;45815;52.334;5.024;2022-07-06T04:55:11;102586.03;;;16.57;100.00
58955;BME280;45815;52.334;5.024;2022-07-06T04:57:36;102563.94;;;16.56;100.00
58955;BME280;45815;52.334;5.024;2022-07-06T05:00:03;102579.31;;;16.73;100.00
58955;BME280;45815;52.334;5.024;2022-07-06T05:02:30;102576.91;;;16.82;100.00
58955;BME280;45815;52.334;5.024;2022-07-06T05:04:56;102576.94;;;16.85;100.00
58955;BME280;45815;52.334;5.024;2022-07-06T05:07:21;102579.59;;;16.85;100.00
58955;BME280;45815;52.334;5.024;2022-07-06T05:09:47;102584.25;;;16.95;100.00
58955;BME280;45815;52.334;5.024;2022-07-06T05:12:12;102579.06;;;17.01;100.00
58955;BME280;45815;52.334;5.024;2022-07-06T05:14:38;102589.66;;;17.00;100.00
58955;BME280;45815;52.334;5.024;2022-07-06T05:17:05;102587.94;;;17.03;100.00
58955;BME280;45815;52.334;5.024;2022-07-06T05:19:30;102585.25;;;17.02;100.00
58955;BME280;45815;52.334;5.024;2022-07-06T05:21:57;102583.66;;;17.10;100.00
58955;BME280;45815;52.334;5.024;2022-07-06T05:24:22;102589.81;;;17.07;100.00
58955;BME280;45815;52.334;5.024;2022-07-06T05:26:47;102580.03;;;17.06;100.00
58955;BME280;45815;52.334;5.024;2022-07-06T05:29:15;102588.09;;;17.09;100.00
58955;BME280;45815;52.334;5.024;2022-07-06T05:31:41;102585.53;;;17.14;100.00
58955;BME280;45815;52.334;5.024;2022-07-06T05:34:07;102590.94;;;17.20;100.00
58955;BME280;45815;52.334;5.024;2022-07-06T05:36:32;102596.31;;;17.25;100.00
58955;BME280;45815;52.334;5.024;2022-07-06T05:38:58;102595.53;;;17.29;100.00
58955;BME280;45815;52.334;5.024;2022-07-06T05:41:24;102591.16;;;17.31;100.00
58955;BME280;45815;52.334;5.024;2022-07-06T05:43:50;102600.97;;;17.35;100.00
58955;BME280;45815;52.334;5.024;2022-07-06T05:46:15;102598.31;;;17.35;100.00
58955;BME280;45815;52.334;5.024;2022-07-06T05:48:40;102595.47;;;17.26;100.00
58955;BME280;45815;52.334;5.024;2022-07-06T05:51:25;102597.06;;;17.18;100.00
58955;BME280;45815;52.334;5.024;2022-07-06T05:53:51;102603.41;;;17.24;100.00
58955;BME280;45815;52.334;5.024;2022-07-06T05:56:18;102597.25;;;17.27;100.00
58955;BME280;45815;52.334;5.024;2022-07-06T05:58:44;102598.97;;;17.25;100.00
58955;BME280;45815;52.334;5.024;2022-07-06T06:01:09;102603.34;;;17.21;100.00
58955;BME280;45815;52.334;5.024;2022-07-06T06:03:37;102593.63;;;17.22;100.00
58955;BME280;45815;52.334;5.024;2022-07-06T06:06:03;102603.34;;;17.23;100.00
58955;BME280;45815;52.334;5.024;2022-07-06T06:08:28;102601.59;;;17.22;100.00
58955;BME280;45815;52.334;5.024;2022-07-06T06:10:54;102601.53;;;17.19;100.00
58955;BME280;45815;52.334;5.024;2022-07-06T06:13:21;102610.38;;;17.19;100.00
58955;BME280;45815;52.334;5.024;2022-07-06T06:15:47;102604.09;;;17.16;100.00
58955;BME280;45815;52.334;5.024;2022-07-06T06:18:14;102599.53;;;17.08;100.00
58955;BME280;45815;52.334;5.024;2022-07-06T06:20:42;102607.44;;;17.05;100.00
58955;BME280;45815;52.334;5.024;2022-07-06T06:23:08;102604.78;;;17.05;100.00
58955;BME280;45815;52.334;5.024;2022-07-06T06:25:35;102601.16;;;17.00;100.00
58955;BME280;45815;52.334;5.024;2022-07-06T06:28:05;102607.38;;;17.02;100.00
58955;BME280;45815;52.334;5.024;2022-07-06T06:30:31;102596.69;;;16.99;100.00
58955;BME280;45815;52.334;5.024;2022-07-06T06:33:15;102603.91;;;17.06;100.00
58955;BME280;45815;52.334;5.024;2022-07-06T06:35:49;102618.28;;;17.16;100.00
58955;BME280;45815;52.334;5.024;2022-07-06T06:38:16;102617.44;;;17.19;100.00
58955;BME280;45815;52.334;5.024;2022-07-06T06:40:42;102616.53;;;17.17;100.00
58955;BME280;45815;52.334;5.024;2022-07-06T06:43:08;102626.34;;;17.21;100.00
58955;BME280;45815;52.334;5.024;2022-07-06T06:45:40;102608.72;;;17.24;100.00
58955;BME280;45815;52.334;5.024;2022-07-06T06:48:06;102608.75;;;17.27;100.00
58955;BME280;45815;52.334;5.024;2022-07-06T06:50:31;102618.63;;;17.33;100.00
58955;BME280;45815;52.334;5.024;2022-07-06T06:52:56;102610.72;;;17.36;100.00
58955;BME280;45815;52.334;5.024;2022-07-06T06:55:22;102603.72;;;17.40;100.00
58955;BME280;45815;52.334;5.024;2022-07-06T06:57:47;102609.09;;;17.44;100.00
58955;BME280;45815;52.334;5.024;2022-07-06T07:00:13;102614.47;;;17.47;100.00
58955;BME280;45815;52.334;5.024;2022-07-06T07:02:39;102615.50;;;17.56;100.00
58955;BME280;45815;52.334;5.024;2022-07-06T07:05:05;102611.19;;;17.61;100.00
58955;BME280;45815;52.334;5.024;2022-07-06T07:07:31;102613.09;;;17.69;100.00
58955;BME280;45815;52.334;5.024;2022-07-06T07:09:56;102614.06;;;17.73;100.00
58955;BME280;45815;52.334;5.024;2022-07-06T07:12:22;102611.31;;;17.68;100.00
58955;BME280;45815;52.334;5.024;2022-07-06T07:14:47;102616.66;;;17.71;100.00
58955;BME280;45815;52.334;5.024;2022-07-06T07:17:13;102606.13;;;17.76;100.00
58955;BME280;45815;52.334;5.024;2022-07-06T07:19:38;102604.31;;;17.73;100.00
58955;BME280;45815;52.334;5.024;2022-07-06T07:22:04;102603.50;;;17.78;100.00
58955;BME280;45815;52.334;5.024;2022-07-06T07:24:30;102608.94;;;17.84;100.00
58955;BME280;45815;52.334;5.024;2022-07-06T07:26:55;102612.59;;;17.90;100.00
58955;BME280;45815;52.334;5.024;2022-07-06T07:29:21;102613.59;;;17.97;100.00
58955;BME280;45815;52.334;5.024;2022-07-06T07:31:46;102603.06;;;18.02;100.00
58955;BME280;45815;52.334;5.024;2022-07-06T07:34:11;102613.94;;;18.19;100.00
58955;BME280;45815;52.334;5.024;2022-07-06T07:36:37;102608.91;;;18.35;100.00
58955;BME280;45815;52.334;5.024;2022-07-06T07:39:03;102614.47;;;18.52;100.00
58955;BME280;45815;52.334;5.024;2022-07-06T07:41:28;102611.91;;;18.60;100.00
58955;BME280;45815;52.334;5.024;2022-07-06T07:43:54;102604.72;;;18.53;100.00
58955;BME280;45815;52.334;5.024;2022-07-06T07:46:19;102603.88;;;18.55;100.00
58955;BME280;45815;52.334;5.024;2022-07-06T07:48:45;102611.88;;;18.59;100.00
58955;BME280;45815;52.334;5.024;2022-07-06T07:51:11;102611.09;;;18.64;100.00
58955;BME280;45815;52.334;5.024;2022-07-06T07:53:36;102597.81;;;18.64;100.00
58955;BME280;45815;52.334;5.024;2022-07-06T07:56:02;102608.63;;;18.76;100.00
58955;BME280;45815;52.334;5.024;2022-07-06T07:58:27;102600.66;;;18.76;100.00
58955;BME280;45815;52.334;5.024;2022-07-06T08:00:53;102608.63;;;18.76;100.00
58955;BME280;45815;52.334;5.024;2022-07-06T08:03:18;102608.72;;;18.83;100.00
58955;BME280;45815;52.334;5.024;2022-07-06T08:05:44;102603.56;;;18.95;100.00
58955;BME280;45815;52.334;5.024;2022-07-06T08:08:09;102588.72;;;19.15;100.00
58955;BME280;45815;52.334;5.024;2022-07-06T08:10:34;102596.06;;;19.36;100.00
58955;BME280;45815;52.334;5.024;2022-07-06T08:13:00;102590.97;;;19.61;100.00
58955;BME280;45815;52.334;5.024;2022-07-06T08:15:25;102591.25;;;19.89;100.00
58955;BME280;45815;52.334;5.024;2022-07-06T08:17:51;102600.38;;;20.18;100.00
58955;BME280;45815;52.334;5.024;2022-07-06T08:20:16;102589.00;;;20.50;100.00
58955;BME280;45815;52.334;5.024;2022-07-06T08:22:42;102596.28;;;20.74;100.00
58955;BME280;45815;52.334;5.024;2022-07-06T08:25:08;102605.19;;;20.75;100.00
58955;BME280;45815;52.334;5.024;2022-07-06T08:27:34;102600.84;;;21.00;100.00
58955;BME280;45815;52.334;5.024;2022-07-06T08:30:00;102584.03;;;21.27;100.00
58955;BME280;45815;52.334;5.024;2022-07-06T08:32:25;102591.16;;;21.36;100.00
58955;BME280;45815;52.334;5.024;2022-07-06T08:34:51;102590.25;;;21.24;100.00
58955;BME280;45815;52.334;5.024;2022-07-06T08:37:18;102592.97;;;21.40;100.00
58955;BME280;45815;52.334;5.024;2022-07-06T08:39:44;102578.78;;;21.68;100.00
58955;BME280;45815;52.334;5.024;2022-07-06T08:42:11;102585.91;;;22.03;100.00
58955;BME280;45815;52.334;5.024;2022-07-06T08:44:37;102584.13;;;22.24;100.00
58955;BME280;45815;52.334;5.024;2022-07-06T08:47:05;102584.06;;;22.42;100.00
58955;BME280;45815;52.334;5.024;2022-07-06T08:49:34;102582.25;;;22.64;99.88
58955;BME280;45815;52.334;5.024;2022-07-06T08:52:01;102579.53;;;22.78;98.24
58955;BME280;45815;52.334;5.024;2022-07-06T08:54:27;102540.25;;;22.75;100.00
58955;BME280;45815;52.334;5.024;2022-07-06T08:56:53;102582.09;;;23.09;97.65
58955;BME280;45815;52.334;5.024;2022-07-06T08:59:19;102578.41;;;23.24;97.40
58955;BME280;45815;52.334;5.024;2022-07-06T09:01:45;102581.91;;;23.36;90.81
58955;BME280;45815;52.334;5.024;2022-07-06T09:04:12;102575.63;;;23.44;95.09
58955;BME280;45815;52.334;5.024;2022-07-06T09:06:42;102580.84;;;23.59;94.95
58955;BME280;45815;52.334;5.024;2022-07-06T09:09:09;102587.97;;;23.62;89.29
58955;BME280;45815;52.334;5.024;2022-07-06T09:11:34;102583.50;;;23.62;91.79
58955;BME280;45815;52.334;5.024;2022-07-06T09:14:01;102583.59;;;23.50;89.06
58955;BME280;45815;52.334;5.024;2022-07-06T09:16:27;102579.22;;;23.39;87.30
58955;BME280;45815;52.334;5.024;2022-07-06T09:18:54;102578.44;;;23.21;88.20
58955;BME280;45815;52.334;5.024;2022-07-06T09:21:31;102575.72;;;23.27;89.52
58955;BME280;45815;52.334;5.024;2022-07-06T09:23:59;102582.00;;;23.21;87.50
58955;BME280;45815;52.334;5.024;2022-07-06T09:26:26;102584.72;;;23.16;85.65
58955;BME280;45815;52.334;5.024;2022-07-06T09:28:51;102591.84;;;23.19;83.28
58955;BME280;45815;52.334;5.024;2022-07-06T09:31:17;102589.22;;;23.10;81.75
58955;BME280;45815;52.334;5.024;2022-07-06T09:33:59;102597.25;;;23.04;82.58
58955;BME280;45815;52.334;5.024;2022-07-06T09:36:44;102591.00;;;23.11;80.85
58955;BME280;45815;52.334;5.024;2022-07-06T09:39:29;102591.94;;;22.93;79.95
58955;BME280;45815;52.334;5.024;2022-07-06T09:41:59;102600.88;;;22.95;79.46
58955;BME280;45815;52.334;5.024;2022-07-06T09:44:30;102596.38;;;23.03;81.14
58955;BME280;45815;52.334;5.024;2022-07-06T09:46:57;102593.56;;;23.25;80.68
58955;BME280;45815;52.334;5.024;2022-07-06T09:49:24;102590.63;;;23.66;81.83
58955;BME280;45815;52.334;5.024;2022-07-06T09:51:52;102590.44;;;23.94;81.60
58955;BME280;45815;52.334;5.024;2022-07-06T09:54:18;102585.75;;;24.17;74.75
58955;BME280;45815;52.334;5.024;2022-07-06T09:56:45;102590.16;;;24.25;69.98
58955;BME280;45815;52.334;5.024;2022-07-06T09:59:22;102587.25;;;24.49;68.70
58955;BME280;45815;52.334;5.024;2022-07-06T10:01:51;102584.25;;;24.72;68.71
58955;BME280;45815;52.334;5.024;2022-07-06T10:04:17;102591.38;;;24.78;68.75
58955;BME280;45815;52.334;5.024;2022-07-06T10:06:45;102589.50;;;24.83;64.98
58955;BME280;45815;52.334;5.024;2022-07-06T10:09:12;102600.22;;;24.86;61.06
58955;BME280;45815;52.334;5.024;2022-07-06T10:11:40;102589.28;;;25.03;60.70
58955;BME280;45815;52.334;5.024;2022-07-06T10:14:06;102586.38;;;25.18;62.21
58955;BME280;45815;52.334;5.024;2022-07-06T10:16:35;102592.34;;;25.40;63.99
58955;BME280;45815;52.334;5.024;2022-07-06T10:19:05;102590.19;;;25.64;60.77
58955;BME280;45815;52.334;5.024;2022-07-06T10:21:31;102590.59;;;25.94;64.73
58955;BME280;45815;52.334;5.024;2022-07-06T10:23:57;102584.19;;;26.01;58.56
58955;BME280;45815;52.334;5.024;2022-07-06T10:26:25;102584.72;;;26.23;61.45
58955;BME280;45815;52.334;5.024;2022-07-06T10:28:51;102577.41;;;26.29;57.09
58955;BME280;45815;52.334;5.024;2022-07-06T10:31:19;102564.78;;;26.31;56.72
58955;BME280;45815;52.334;5.024;2022-07-06T10:33:45;102578.56;;;26.63;55.45
58955;BME280;45815;52.334;5.024;2022-07-06T10:36:12;102579.16;;;26.79;56.05
58955;BME280;45815;52.334;5.024;2022-07-06T10:38:37;102573.03;;;26.70;53.34
58955;BME280;45815;52.334;5.024;2022-07-06T10:41:07;102567.31;;;26.86;58.33
58955;BME280;45815;52.334;5.024;2022-07-06T10:43:41;102568.75;;;27.02;54.87
58955;BME280;45815;52.334;5.024;2022-07-06T10:46:14;102573.97;;;27.10;52.58
58955;BME280;45815;52.334;5.024;2022-07-06T10:48:44;102568.38;;;27.17;50.73
58955;BME280;45815;52.334;5.024;2022-07-06T10:51:25;102559.25;;;27.26;54.72
58955;BME280;45815;52.334;5.024;2022-07-06T10:54:04;102560.13;;;27.27;51.74
58955;BME280;45815;52.334;5.024;2022-07-06T10:56:42;102558.81;;;27.04;51.88
58955;BME280;45815;52.334;5.024;2022-07-06T10:59:21;102558.88;;;27.01;53.85
58955;BME280;45815;52.334;5.024;2022-07-06T11:02:12;102555.72;;;26.81;52.58
58955;BME280;45815;52.334;5.024;2022-07-06T11:04:42;102551.44;;;27.12;56.54
58955;BME280;45815;52.334;5.024;2022-07-06T11:07:13;102545.78;;;27.25;53.95
58955;BME280;45815;52.334;5.024;2022-07-06T11:09:39;102536.59;;;27.33;52.12
58955;BME280;45815;52.334;5.024;2022-07-06T11:12:16;102543.06;;;26.86;50.05
58955;BME280;45815;52.334;5.024;2022-07-06T11:14:44;102546.03;;;27.12;50.21
58955;BME280;45815;52.334;5.024;2022-07-06T11:17:11;102531.22;;;27.32;54.77
58955;BME280;45815;52.334;5.024;2022-07-06T11:19:37;102532.34;;;27.61;53.88
58955;BME280;45815;52.334;5.024;2022-07-06T11:22:07;102521.69;;;27.54;54.60
58955;BME280;45815;52.334;5.024;2022-07-06T11:24:34;102522.53;;;27.56;49.52
58955;BME280;45815;52.334;5.024;2022-07-06T11:27:01;102521.88;;;27.81;50.46
58955;BME280;45815;52.334;5.024;2022-07-06T11:29:28;102519.72;;;27.95;53.21
58955;BME280;45815;52.334;5.024;2022-07-06T11:31:56;102522.38;;;27.98;51.50
58955;BME280;45815;52.334;5.024;2022-07-06T11:34:27;102520.25;;;28.10;49.15
58955;BME280;45815;52.334;5.024;2022-07-06T11:36:57;102518.72;;;27.99;52.31
58955;BME280;45815;52.334;5.024;2022-07-06T11:39:26;102515.03;;;28.04;47.97
58955;BME280;45815;52.334;5.024;2022-07-06T11:41:54;102508.28;;;27.87;47.98
58955;BME280;45815;52.334;5.024;2022-07-06T11:44:19;102505.34;;;27.95;52.77
58955;BME280;45815;52.334;5.024;2022-07-06T11:46:45;102511.81;;;27.89;52.29
58955;BME280;45815;52.334;5.024;2022-07-06T11:49:10;102508.50;;;27.78;56.47
58955;BME280;45815;52.334;5.024;2022-07-06T11:51:39;102498.19;;;27.60;51.59
58955;BME280;45815;52.334;5.024;2022-07-06T11:54:10;102511.53;;;27.64;56.48
58955;BME280;45815;52.334;5.024;2022-07-06T11:56:36;102507.63;;;27.76;56.71
58955;BME280;45815;52.334;5.024;2022-07-06T11:59:02;102508.94;;;27.61;53.56
58955;BME280;45815;52.334;5.024;2022-07-06T12:01:28;102503.41;;;28.00;52.85
58955;BME280;45815;52.334;5.024;2022-07-06T12:04:01;102511.19;;;28.44;50.93
58955;BME280;45815;52.334;5.024;2022-07-06T12:06:28;102502.03;;;28.49;49.52
58955;BME280;45815;52.334;5.024;2022-07-06T12:08:58;102511.72;;;28.56;48.37
58955;BME280;45815;52.334;5.024;2022-07-06T12:11:29;102506.81;;;28.71;46.06
58955;BME280;45815;52.334;5.024;2022-07-06T12:13:59;102494.19;;;28.99;47.75
58955;BME280;45815;52.334;5.024;2022-07-06T12:16:33;102502.44;;;28.95;46.24
58955;BME280;45815;52.334;5.024;2022-07-06T12:19:00;102502.94;;;29.09;46.40
58955;BME280;45815;52.334;5.024;2022-07-06T12:21:26;102491.22;;;29.09;48.09
58955;BME280;45815;52.334;5.024;2022-07-06T12:23:53;102505.44;;;28.86;49.11
58955;BME280;45815;52.334;5.024;2022-07-06T12:26:22;102501.16;;;28.78;49.19
58955;BME280;45815;52.334;5.024;2022-07-06T12:29:10;102497.34;;;28.56;46.14
58955;BME280;45815;52.334;5.024;2022-07-06T12:34:15;102501.13;;;28.19;51.87
58955;BME280;45815;52.334;5.024;2022-07-06T12:36:57;102500.56;;;28.06;50.70
58955;BME280;45815;52.334;5.024;2022-07-06T12:39:25;102487.03;;;28.08;53.01
58955;BME280;45815;52.334;5.024;2022-07-06T12:41:55;102495.03;;;28.11;53.03
58955;BME280;45815;52.334;5.024;2022-07-06T12:44:24;102488.16;;;27.99;51.67
58955;BME280;45815;52.334;5.024;2022-07-06T12:47:10;102482.47;;;28.10;53.10